Time;durP1;ratioP1;P1;durP2;ratioP2;P2;SDS_P1;SDS_P2;PMS_P1;PMS_P2;Temp;Humidity;BMP_temperature;BMP_pressure;BME280_temperature;BME280_humidity;BME280_pressure;Samples;Min_cycle;Max_cycle;Signal;HPM_P1;HPM_P2
2022/05/25 00:00:24;;;;;;;;;;;;;;;;;;5000093;28;19917;-78
2022/05/25 00:02:49;;;;;;;;;;;;;;;;;;4995159;28;19909;-78
2022/05/25 00:05:16;;;;;;;;;;;14.00;99.90;;;;;;4996959;28;20794;-77
2022/05/25 00:07:42;;;;;;;;;;;;;;;;;;5002837;28;19909;-77
2022/05/25 00:10:08;;;;;;;;;;;;;;;;;;4999254;28;19933;-77
2022/05/25 00:12:33;;;;;;;;;;;;;;;;;;4997160;28;19909;-77
2022/05/25 00:14:59;;;;;;;;;;;;;;;;;;4993733;28;19925;-78
2022/05/25 00:17:25;;;;;;;;;;;13.90;99.90;;;;;;4995106;28;20465;-77
2022/05/25 00:19:59;;;;;;;;;;;13.80;99.90;;;;;;4993796;28;19967;-77
2022/05/25 00:22:27;;;;;;;0.82;0.20;;;13.90;99.90;;;;;;4997307;28;19921;-77
2022/05/25 00:24:56;;;;;;;0.32;0.20;;;;;;;;;;4996432;28;20490;-77
2022/05/25 00:27:22;;;;;;;0.10;0.10;;;;;;;;;;4998033;28;20056;-77
2022/05/25 00:29:48;;;;;;;0.65;0.47;;;;;;;;;;5015065;28;20029;-77
2022/05/25 00:32:14;;;;;;;0.40;0.20;;;;;;;;;;5004523;28;20030;-77
2022/05/25 00:34:40;;;;;;;0.20;0.20;;;;;;;;;;4997091;28;20054;-78
2022/05/25 00:37:06;;;;;;;0.85;0.73;;;;;;;;;;4995682;28;20022;-78
2022/05/25 00:39:32;;;;;;;0.47;0.20;;;;;;;;;;4999003;28;20029;-77
2022/05/25 00:41:58;;;;;;;0.38;0.20;;;;;;;;;;4997523;28;20080;-77
2022/05/25 00:44:23;;;;;;;5.22;0.30;;;;;;;;;;4995153;28;20148;-77
2022/05/25 00:46:50;;;;;;;0.65;0.40;;;;;;;;;;5001875;28;20064;-77
2022/05/25 00:49:26;;;;;;;0.35;0.30;;;13.80;99.90;;;;;;5001855;28;20049;-77
2022/05/25 00:51:59;;;;;;;0.38;0.20;;;;;;;;;;4998096;28;20034;-77
2022/05/25 00:54:28;;;;;;;0.10;0.10;;;;;;;;;;5008885;28;20038;-77
2022/05/25 00:56:55;;;;;;;0.43;0.28;;;12.80;99.90;;;;;;5001055;28;20510;-77
2022/05/25 00:59:26;;;;;;;0.63;0.20;;;13.70;99.90;;;;;;4993384;28;20534;-77
2022/05/25 01:01:52;;;;;;;0.28;0.17;;;;;;;;;;5002744;28;20563;-77
2022/05/25 01:04:18;;;;;;;1.05;0.30;;;;;;;;;;5000981;28;20117;-77
2022/05/25 01:06:52;;;;;;;0.35;0.22;;;14.10;99.90;;;;;;5006805;28;20128;-77
2022/05/25 01:09:44;;;;;;;1.15;0.30;;;13.80;99.90;;;;;;5008948;28;20035;-77
2022/05/25 01:12:29;;;;;;;0.93;0.35;;;;;;;;;;5003833;28;20030;-77
2022/05/25 01:15:09;;;;;;;0.28;0.20;;;13.10;99.90;;;;;;5001295;28;20045;-77
2022/05/25 01:17:53;;;;;;;0.30;0.30;;;13.70;99.90;;;;;;5003545;28;20540;-77
2022/05/25 01:20:42;;;;;;;0.73;0.20;;;;;;;;;;5003365;28;20039;-77
2022/05/25 01:23:17;;;;;;;0.32;0.32;;;;;;;;;;5006124;28;20040;-77
2022/05/25 01:26:00;;;;;;;0.57;0.25;;;;;;;;;;5006014;28;20382;-78
2022/05/25 01:28:36;;;;;;;3.80;0.50;;;;;;;;;;5005599;28;20030;-77
2022/05/25 01:31:05;;;;;;;0.30;0.20;;;;;;;;;;5005375;28;20162;-77
2022/05/25 01:33:52;;;;;;;0.80;0.35;;;13.80;99.90;;;;;;5007078;28;20037;-77
2022/05/25 01:36:34;;;;;;;0.52;0.43;;;13.60;99.90;;;;;;5007828;28;20045;-77
2022/05/25 01:39:07;;;;;;;0.45;0.20;;;;;;;;;;5008471;28;20040;-78
2022/05/25 01:41:36;;;;;;;0.40;0.20;;;;;;;;;;5003947;28;20030;-77
2022/05/25 01:44:07;;;;;;;0.45;0.20;;;;;;;;;;5005048;28;20125;-78
2022/05/25 01:46:50;;;;;;;0.13;0.13;;;;;;;;;;5005392;28;20474;-77
2022/05/25 01:49:16;;;;;;;;;;;;;;;;;;5001473;28;20084;-77
2022/05/25 01:52:02;;;;;;;2.30;0.32;;;;;;;;;;5005164;28;19909;-77
2022/05/25 01:54:31;;;;;;;1.05;0.50;;;;;;;;;;5007704;28;20464;-77
2022/05/25 01:57:03;;;;;;;0.30;0.20;;;13.60;99.90;;;;;;5004884;28;20532;-78
2022/05/25 01:59:29;;;;;;;1.08;0.20;;;;;;;;;;4996788;28;20037;-77
2022/05/25 02:04:43;;;;;;;0.10;0.10;;;;;;;;;;4995221;28;20037;-78
2022/05/25 02:07:40;;;;;;;0.20;0.20;;;13.50;99.90;;;;;;4994626;28;20394;-78
2022/05/25 02:10:42;;;;;;;1.20;0.22;;;13.40;99.90;;;;;;5005090;28;20483;-77
2022/05/25 02:13:36;;;;;;;0.35;0.20;;;13.40;99.90;;;;;;5002496;28;20805;-77
2022/05/25 02:16:02;;;;;;;16.60;0.80;;;;;;;;;;5004435;28;20095;-78
2022/05/25 02:19:11;;;;;;;0.10;0.10;;;13.50;99.90;;;;;;5000827;28;20018;-78
2022/05/25 02:21:40;;;;;;;0.28;0.20;;;;;;;;;;5005701;28;20045;-77
2022/05/25 02:24:35;;;;;;;0.35;0.20;;;12.40;99.90;;;;;;5008023;28;20081;-77
2022/05/25 02:27:06;;;;;;;3.50;0.30;;;;;;;;;;4989882;28;20129;-77
2022/05/25 02:29:37;;;;;;;0.50;0.28;;;;;;;;;;5007499;28;20025;-77
2022/05/25 02:32:30;;;;;;;0.45;0.10;;;13.40;99.90;;;;;;5004981;28;20042;-78
2022/05/25 02:34:57;;;;;;;5.28;0.20;;;;;;;;;;5002819;28;20133;-78
2022/05/25 02:37:25;;;;;;;0.30;0.25;;;;;;;;;;5005637;28;20038;-78
2022/05/25 02:39:53;;;;;;;0.60;0.20;;;13.40;99.90;;;;;;5003103;28;20475;-78
2022/05/25 02:42:19;;;;;;;4.13;0.20;;;12.70;99.90;;;;;;5005162;28;20390;-78
2022/05/25 02:44:45;;;;;;;0.28;0.20;;;12.50;99.90;;;;;;5006182;28;20041;-77
2022/05/25 02:47:11;;;;;;;2.45;0.10;;;;;;;;;;5009204;28;20061;-78
2022/05/25 02:49:37;;;;;;;1.05;0.30;;;13.60;99.90;;;;;;5008068;28;20026;-78
2022/05/25 02:52:05;;;;;;;0.20;0.10;;;;;;;;;;5008434;28;20030;-77
2022/05/25 02:54:31;;;;;;;0.47;0.30;;;;;;;;;;5004930;28;20133;-77
2022/05/25 02:56:57;;;;;;;0.38;0.17;;;;;;;;;;4997401;28;20029;-78
2022/05/25 02:59:23;;;;;;;1.40;0.50;;;;;;;;;;4998482;28;20025;-78
2022/05/25 03:01:49;;;;;;;1.30;0.30;;;;;;;;;;5012106;28;20113;-78
2022/05/25 03:04:15;;;;;;;0.25;0.20;;;;;;;;;;5004100;28;20911;-78
2022/05/25 03:06:41;;;;;;;3.00;0.93;;;;;;;;;;5003556;28;20037;-78
2022/05/25 03:09:07;;;;;;;1.25;0.20;;;;;;;;;;5001709;28;20096;-78
2022/05/25 03:11:32;;;;;;;0.30;0.20;;;12.70;99.90;;;;;;5004502;28;20025;-78
2022/05/25 03:13:58;;;;;;;0.70;0.30;;;;;;;;;;5011069;28;20033;-77
2022/05/25 03:16:25;;;;;;;0.70;0.35;;;;;;;;;;5006916;28;20030;-78
2022/05/25 03:18:51;;;;;;;0.95;0.32;;;12.10;99.90;;;;;;5005785;28;20029;-78
2022/05/25 03:21:17;;;;;;;0.75;0.30;;;;;;;;;;5005152;28;20034;-78
2022/05/25 03:23:43;;;;;;;0.75;0.20;;;;;;;;;;5007670;28;20036;-78
2022/05/25 03:26:09;;;;;;;0.25;0.25;;;;;;;;;;5004045;28;20026;-78
2022/05/25 03:28:35;;;;;;;0.43;0.20;;;;;;;;;;5006368;28;20038;-77
2022/05/25 03:31:01;;;;;;;0.45;0.20;;;13.60;99.90;;;;;;5005041;28;20047;-77
2022/05/25 03:33:27;;;;;;;1.25;0.32;;;12.60;99.90;;;;;;5003990;28;20112;-78
2022/05/25 03:35:52;;;;;;;0.65;0.25;;;;;;;;;;5007288;28;20100;-78
2022/05/25 03:38:18;;;;;;;1.30;0.32;;;;;;;;;;5004581;28;20034;-77
2022/05/25 03:40:45;;;;;;;4.13;0.45;;;;;;;;;;5005455;28;20034;-78
2022/05/25 03:43:11;;;;;;;0.57;0.28;;;;;;;;;;5010989;28;20040;-78
2022/05/25 03:45:37;;;;;;;0.40;0.38;;;;;;;;;;5004541;28;20041;-78
2022/05/25 03:48:07;;;;;;;0.17;0.10;;;;;;;;;;5002417;28;20142;-78
2022/05/25 03:50:34;;;;;;;2.28;0.40;;;;;;;;;;5003453;28;20401;-79
2022/05/25 03:53:00;;;;;;;0.10;0.10;;;;;;;;;;5008232;28;20026;-77
2022/05/25 03:55:26;;;;;;;0.52;0.20;;;;;;;;;;5008736;28;20045;-78
2022/05/25 03:57:52;;;;;;;0.65;0.20;;;;;;;;;;5007185;28;20117;-78
2022/05/25 04:00:18;;;;;;;0.57;0.28;;;;;;;;;;5001532;28;20090;-78
2022/05/25 04:02:45;;;;;;;0.82;0.35;;;;;;;;;;5002402;28;20049;-78
2022/05/25 04:05:12;;;;;;;0.52;0.28;;;;;;;;;;5008363;28;20547;-78
2022/05/25 04:07:46;;;;;;;0.20;0.15;;;13.20;99.90;;;;;;5006030;28;20041;-78
2022/05/25 04:10:14;;;;;;;1.63;0.35;;;;;;;;;;5005769;28;20489;-78
2022/05/25 04:12:41;;;;;;;0.75;0.40;;;;;;;;;;5004902;28;20026;-78
2022/05/25 04:15:08;;;;;;;0.40;0.20;;;;;;;;;;5007752;28;20038;-78
2022/05/25 04:17:34;;;;;;;0.90;0.32;;;13.10;99.90;;;;;;5003160;28;20030;-77
2022/05/25 04:20:00;;;;;;;0.30;0.30;;;;;;;;;;5007729;28;20076;-78
2022/05/25 04:22:26;;;;;;;0.20;0.20;;;;;;;;;;5004697;28;20065;-78
2022/05/25 04:24:52;;;;;;;0.57;0.38;;;;;;;;;;5006573;28;20489;-78
2022/05/25 04:27:18;;;;;;;0.65;0.28;;;;;;;;;;4993626;28;20032;-77
2022/05/25 04:29:44;;;;;;;0.88;0.68;;;12.90;99.90;;;;;;5001264;28;20049;-78
2022/05/25 04:32:10;;;;;;;0.68;0.25;;;;;;;;;;5001986;28;20029;-77
2022/05/25 04:34:36;;;;;;;0.20;0.10;;;;;;;;;;5004069;28;20041;-78
2022/05/25 04:39:47;;;;;;;0.22;0.17;;;;;;;;;;5005736;28;20065;-80
2022/05/25 04:42:13;;;;;;;0.30;0.13;;;;;;;;;;5000443;28;20049;-81
2022/05/25 04:44:39;;;;;;;0.20;0.10;;;;;;;;;;4999856;28;20034;-81
2022/05/25 04:47:09;;;;;;;1.73;0.20;;;;;;;;;;5001631;28;20033;-83
2022/05/25 04:49:36;;;;;;;0.60;0.30;;;;;;;;;;5003919;28;20030;-79
2022/05/25 04:52:02;;;;;;;0.82;0.40;;;13.20;99.90;;;;;;5003044;28;20490;-79
2022/05/25 04:54:28;;;;;;;1.33;0.75;;;;;;;;;;5003687;28;20244;-80
2022/05/25 04:59:39;;;;;;;1.20;0.32;;;12.80;99.90;;;;;;5000543;28;20528;-80
2022/05/25 05:02:05;;;;;;;0.40;0.20;;;;;;;;;;4999833;28;20121;-79
2022/05/25 05:04:31;;;;;;;0.20;0.10;;;;;;;;;;4998340;28;20529;-77
2022/05/25 05:06:57;;;;;;;0.50;0.30;;;;;;;;;;5002812;28;20079;-78
2022/05/25 05:09:23;;;;;;;0.25;0.20;;;;;;;;;;5003214;28;20494;-80
2022/05/25 05:11:49;;;;;;;1.58;0.32;;;;;;;;;;4994773;28;20029;-79
2022/05/25 05:14:15;;;;;;;0.57;0.20;;;;;;;;;;4997747;28;20646;-78
2022/05/25 05:16:41;;;;;;;0.45;0.17;;;14.10;99.90;;;;;;5000042;28;20108;-78
2022/05/25 05:19:07;;;;;;;0.77;0.20;;;;;;;;;;5005762;28;20112;-78
2022/05/25 05:21:33;;;;;;;1.10;0.28;;;;;;;;;;5010513;28;20030;-78
2022/05/25 05:23:59;;;;;;;0.30;0.10;;;;;;;;;;5013136;28;20101;-78
2022/05/25 05:26:25;;;;;;;0.60;0.20;;;;;;;;;;5012990;28;20040;-78
2022/05/25 05:28:53;;;;;;;0.43;0.30;;;;;;;;;;5006686;28;20153;-78
2022/05/25 05:31:19;;;;;;;0.57;0.30;;;;;;;;;;5011156;28;20034;-78
2022/05/25 05:33:45;;;;;;;0.60;0.52;;;;;;;;;;5010753;28;20477;-78
2022/05/25 05:36:16;;;;;;;0.22;0.20;;;14.40;99.90;;;;;;5017703;28;20057;-78
2022/05/25 05:38:50;;;;;;;1.30;0.35;;;;;;;;;;5013271;28;20057;-78
2022/05/25 05:41:21;;;;;;;0.10;0.10;;;14.70;99.90;;;;;;5009190;28;20041;-78
2022/05/25 05:43:47;;;;;;;0.30;0.20;;;15.90;99.90;;;;;;5008257;28;20048;-78
2022/05/25 05:46:13;;;;;;;1.55;0.52;;;;;;;;;;5014127;28;20038;-79
2022/05/25 05:48:40;;;;;;;0.45;0.30;;;14.70;99.90;;;;;;5003900;28;20375;-79
2022/05/25 05:51:06;;;;;;;0.47;0.30;;;;;;;;;;5012978;28;20080;-79
2022/05/25 05:53:33;;;;;;;0.05;0.05;;;;;;;;;;5012314;28;20381;-78
2022/05/25 05:55:59;;;;;;;0.73;0.20;;;;;;;;;;5014589;28;20069;-80
2022/05/25 05:58:25;;;;;;;0.65;0.28;;;;;;;;;;5012189;28;20513;-79
2022/05/25 06:00:52;;;;;;;1.50;0.15;;;;;;;;;;5014797;28;20022;-79
2022/05/25 06:03:18;;;;;;;0.20;0.20;;;;;;;;;;5007632;28;20038;-79
2022/05/25 06:05:44;;;;;;;0.75;0.30;;;;;;;;;;5013004;28;20040;-78
2022/05/25 06:08:16;;;;;;;2.42;0.22;;;18.70;99.90;;;;;;5008961;28;20555;-78
2022/05/25 06:10:41;;;;;;;0.60;0.28;;;20.20;99.90;;;;;;5015688;28;20081;-78
2022/05/25 06:13:08;;;;;;;1.65;0.43;;;;;;;;;;5010279;28;20026;-79
2022/05/25 06:21:07;;;;;;;0.50;0.20;;;;;;;;;;5010797;28;20052;-78
2022/05/25 06:23:33;;;;;;;0.32;0.20;;;27.10;75.20;;;;;;5010240;28;20165;-80
2022/05/25 06:25:59;;;;;;;1.05;0.47;;;;;;;;;;5012081;28;20503;-78
2022/05/25 06:28:24;;;;;;;0.35;0.10;;;30.00;73.60;;;;;;5006027;28;20627;-79
2022/05/25 06:30:51;;;;;;;0.30;0.20;;;;;;;;;;5010066;28;20056;-79
2022/05/25 06:33:17;;;;;;;1.25;0.10;;;;;;;;;;5008438;28;20034;-80
2022/05/25 06:35:42;;;;;;;0.57;0.30;;;31.90;65.50;;;;;;5015278;28;20098;-79
2022/05/25 06:38:08;;;;;;;1.05;0.20;;;;;;;;;;5009034;28;20036;-80
2022/05/25 06:40:34;;;;;;;1.02;0.25;;;;;;;;;;5005221;28;20034;-79
2022/05/25 06:43:00;;;;;;;0.98;0.25;;;;;;;;;;5010772;28;20033;-79
2022/05/25 06:45:26;;;;;;;0.15;0.10;;;;;;;;;;5013838;28;20473;-80
2022/05/25 06:47:52;;;;;;;0.30;0.13;;;;;;;;;;5011313;28;20025;-80
2022/05/25 06:50:18;;;;;;;0.43;0.13;;;;;;;;;;5006322;28;20038;-80
2022/05/25 06:52:44;;;;;;;2.30;0.25;;;;;;;;;;5016389;28;20550;-78
2022/05/25 06:55:11;;;;;;;0.45;0.10;;;;;;;;;;5012953;28;20149;-79
2022/05/25 06:57:37;;;;;;;0.43;0.10;;;;;;;;;;5010278;28;20609;-80
2022/05/25 07:00:04;;;;;;;0.85;0.20;;;37.10;40.30;;;;;;5014813;28;20062;-79
2022/05/25 07:02:30;;;;;;;1.45;0.20;;;;;;;;;;5010891;28;20397;-79
2022/05/25 07:04:56;;;;;;;1.70;0.32;;;;;;;;;;5010902;28;20077;-80
2022/05/25 07:07:23;;;;;;;0.40;0.17;;;;;;;;;;5009172;28;20046;-80
2022/05/25 07:09:50;;;;;;;1.02;0.30;;;;;;;;;;5017168;28;20068;-80
2022/05/25 07:12:16;;;;;;;0.73;0.30;;;;;;;;;;5014263;28;20552;-79
2022/05/25 07:14:42;;;;;;;0.70;0.60;;;;;;;;;;5007560;28;20087;-80
2022/05/25 07:17:09;;;;;;;2.38;0.63;;;;;;;;;;5008688;28;20045;-80
2022/05/25 07:19:35;;;;;;;0.20;0.10;;;37.40;34.10;;;;;;5009782;28;20045;-79
2022/05/25 07:22:01;;;;;;;0.20;0.10;;;36.80;33.60;;;;;;5009812;28;20029;-79
2022/05/25 07:24:27;;;;;;;0.63;0.20;;;;;;;;;;5010489;28;20029;-79
2022/05/25 07:26:52;;;;;;;0.05;0.00;;;;;;;;;;5005765;28;20473;-78
2022/05/25 07:29:18;;;;;;;0.93;0.20;;;35.20;45.70;;;;;;5010697;28;20105;-79
2022/05/25 07:31:50;;;;;;;1.50;0.85;;;34.20;36.90;;;;;;5011217;28;20036;-80
2022/05/25 07:34:24;;;;;;;0.22;0.10;;;32.70;36.40;;;;;;5006831;28;20025;-79
2022/05/25 07:36:54;;;;;;;3.60;0.40;;;31.70;38.70;;;;;;5013149;28;20506;-79
2022/05/25 07:39:23;;;;;;;1.13;0.20;;;30.60;41.30;;;;;;5012831;28;20084;-79
2022/05/25 07:41:52;;;;;;;1.30;0.20;;;30.20;53.70;;;;;;5007654;28;20101;-79
2022/05/25 07:44:26;;;;;;;0.65;0.30;;;29.60;54.40;;;;;;5006063;28;20084;-79
2022/05/25 07:46:52;;;;;;;1.05;0.30;;;;;;;;;;5012447;28;20084;-79
2022/05/25 07:49:18;;;;;;;;;;;28.20;46.00;;;;;;5008702;28;20034;-79
2022/05/25 07:51:45;;;;;;;;;;;27.30;45.60;;;;;;5010877;28;19917;-79
2022/05/25 07:54:11;;;;;;;;;;;25.90;50.00;;;;;;5014616;28;19914;-79
2022/05/25 07:56:37;;;;;;;0.55;0.10;;;25.70;52.00;;;;;;5011311;28;19918;-78
2022/05/25 07:59:08;;;;;;;3.63;0.20;;;25.10;52.40;;;;;;5008787;28;20873;-78
2022/05/25 08:07:05;;;;;;;;;;;24.90;55.70;;;;;;5019655;28;19929;-81
2022/05/25 08:09:31;;;;;;;;;;;24.30;57.60;;;;;;5019354;28;19970;-80
2022/05/25 08:11:57;;;;;;;;;;;24.70;57.30;;;;;;5011051;28;19956;-81
2022/05/25 08:14:25;;;;;;;;;;;23.10;57.60;;;;;;5004004;28;19977;-80
2022/05/25 08:16:50;;;;;;;;;;;24.30;57.10;;;;;;5005342;28;19913;-78
2022/05/25 08:19:16;;;;;;;;;;;23.90;58.50;;;;;;5001185;28;20329;-79
2022/05/25 08:21:42;;;;;;;;;;;;;;;;;;5011050;28;19917;-79
2022/05/25 08:24:07;;;;;;;;;;;22.80;58.40;;;;;;5008495;28;19992;-79
2022/05/25 08:26:33;;;;;;;;;;;22.60;59.70;;;;;;5009509;28;19909;-79
2022/05/25 08:28:58;;;;;;;;;;;;;;;;;;5006660;28;19948;-79
2022/05/25 08:31:24;;;;;;;;;;;22.70;60.40;;;;;;5008597;28;19956;-79
2022/05/25 08:33:49;;;;;;;;;;;23.50;58.70;;;;;;5010363;28;19920;-79
2022/05/25 08:36:15;;;;;;;;;;;22.30;58.30;;;;;;5013643;28;19933;-78
2022/05/25 08:38:41;;;;;;;;;;;;;;;;;;5009391;28;19924;-77
2022/05/25 08:41:06;;;;;;;;;;;23.20;59.30;;;;;;5004978;28;19937;-79
2022/05/25 08:43:39;;;;;;;;;;;25.50;55.70;;;;;;5010416;28;19910;-78
2022/05/25 08:46:06;;;;;;;;;;;26.70;50.10;;;;;;5007474;28;19989;-79
2022/05/25 08:48:33;;;;;;;;;;;27.30;47.30;;;;;;5003780;28;20381;-79
2022/05/25 08:51:01;;;;;;;;;;;27.70;49.60;;;;;;5008877;28;19909;-79
2022/05/25 08:53:27;;;;;;;;;;;27.90;45.80;;;;;;5011229;28;19905;-78
2022/05/25 08:55:55;;;;;;;;;;;28.40;44.80;;;;;;5009458;28;19924;-78
2022/05/25 08:58:23;;;;;;;;;;;28.10;44.30;;;;;;5003549;28;20266;-79
2022/05/25 09:00:50;;;;;;;;;;;28.00;44.60;;;;;;5015743;28;20409;-79
2022/05/25 09:03:35;;;;;;;;;;;27.60;47.60;;;;;;5012764;28;20301;-80
2022/05/25 09:06:16;;;;;;;;;;;28.90;43.80;;;;;;5014735;28;19940;-79
2022/05/25 09:08:45;;;;;;;;;;;29.50;40.90;;;;;;5013784;28;20047;-79
2022/05/25 09:11:15;;;;;;;;;;;30.30;41.30;;;;;;5008028;28;19914;-79
2022/05/25 09:13:43;;;;;;;;;;;29.40;43.50;;;;;;5013502;28;19913;-78
2022/05/25 09:16:16;;;;;;;;;;;29.20;46.50;;;;;;5022479;28;20293;-79
2022/05/25 09:19:03;;;;;;;;;;;28.10;46.50;;;;;;5018868;28;20396;-79
2022/05/25 09:21:55;;;;;;;;;;;29.70;49.00;;;;;;5026932;28;19897;-79
2022/05/25 09:24:22;;;;;;;;;;;28.90;47.50;;;;;;5017889;28;20000;-78
2022/05/25 09:26:48;;;;;;;;;;;27.70;46.70;;;;;;5012401;28;19920;-79
2022/05/25 09:29:13;;;;;;;;;;;27.30;48.40;;;;;;5008039;28;19913;-79
2022/05/25 09:31:42;;;;;;;;;;;26.60;46.60;;;;;;5015854;28;19909;-78
2022/05/25 09:34:12;;;;;;;1.75;0.20;;;26.30;52.20;;;;;;5009881;28;19920;-78
2022/05/25 09:36:46;;;;;;;0.60;0.13;;;25.40;52.80;;;;;;5011523;28;20030;-78
2022/05/25 09:39:15;;;;;;;;;;;25.80;53.40;;;;;;5005563;28;20038;-78
2022/05/25 09:41:41;;;;;;;;;;;;;;;;;;5008988;28;19971;-80
2022/05/25 09:44:10;;;;;;;;;;;25.10;57.60;;;;;;5012769;28;19909;-79
2022/05/25 09:46:39;;;;;;;;;;;24.00;53.60;;;;;;5018121;28;19965;-80
2022/05/25 09:49:06;;;;;;;;;;;25.10;54.20;;;;;;5013265;28;19918;-78
2022/05/25 09:51:37;;;;;;;;;;;23.70;53.40;;;;;;5014276;28;20381;-79
2022/05/25 09:54:03;;;;;;;;;;;23.50;55.60;;;;;;5013630;28;19905;-79
2022/05/25 09:56:39;;;;;;;;;;;23.70;56.80;;;;;;5012764;28;19918;-79
2022/05/25 09:59:07;;;;;;;;;;;24.80;53.00;;;;;;5008844;28;19910;-79
2022/05/25 10:01:39;;;;;;;;;;;24.60;57.10;;;;;;5014505;28;19913;-80
2022/05/25 10:04:05;;;;;;;;;;;23.70;54.40;;;;;;5012442;28;19910;-79
2022/05/25 10:06:32;;;;;;;;;;;;;;;;;;5013963;28;19913;-79
2022/05/25 10:09:16;;;;;;;;;;;23.50;53.20;;;;;;5012236;28;19932;-79
2022/05/25 10:11:43;;;;;;;;;;;23.30;58.00;;;;;;5010550;28;20103;-80
2022/05/25 10:14:23;;;;;;;;;;;23.10;56.40;;;;;;5012977;28;19921;-80
2022/05/25 10:16:49;;;;;;;;;;;22.90;56.50;;;;;;5006786;28;19925;-79
2022/05/25 10:19:17;;;;;;;;;;;22.80;58.30;;;;;;5009100;28;19915;-80
2022/05/25 10:21:46;;;;;;;;;;;23.90;58.20;;;;;;5010242;28;19917;-80
2022/05/25 10:24:20;;;;;;;;;;;23.80;58.70;;;;;;5011893;28;19917;-80
2022/05/25 10:26:48;;;;;;;;;;;23.70;58.40;;;;;;5011187;28;20333;-79
2022/05/25 10:36:45;;;;;;;;;;;23.60;58.10;;;;;;5014383;28;19916;-79
2022/05/25 10:37:51;;;;;;;;;;;22.90;57.10;;;;;;5008088;28;19924;-80
2022/05/25 10:40:20;;;;;;;;;;;22.80;60.30;;;;;;5010961;28;20319;-78
2022/05/25 10:42:46;;;;;;;;;;;24.00;56.90;;;;;;5012619;28;19917;-80
2022/05/25 10:45:14;;;;;;;;;;;22.80;56.70;;;;;;5015446;28;19910;-79
2022/05/25 10:47:40;;;;;;;;;;;;;;;;;;5012422;28;20328;-79
2022/05/25 10:50:11;;;;;;;;;;;23.60;54.80;;;;;;5010396;28;20269;-80
2022/05/25 10:52:38;;;;;;;;;;;23.10;55.00;;;;;;5013942;28;19909;-79
2022/05/25 10:55:05;;;;;;;;;;;22.80;54.90;;;;;;5010582;28;19921;-80
2022/05/25 10:57:50;;;;;;;;;;;24.00;53.10;;;;;;5011448;28;19913;-80
2022/05/25 11:00:18;;;;;;;;;;;22.40;56.40;;;;;;5014266;28;19905;-80
2022/05/25 11:03:01;;;;;;;;;;;22.80;55.10;;;;;;5010451;28;19910;-80
2022/05/25 11:05:33;;;;;;;;;;;22.40;54.50;;;;;;5017074;28;20313;-80
2022/05/25 11:08:04;;;;;;;;;;;23.50;56.60;;;;;;5011040;28;19917;-79
2022/05/25 11:10:39;;;;;;;;;;;22.90;56.10;;;;;;5015323;28;19996;-80
2022/05/25 11:13:14;;;;;;;;;;;23.30;57.20;;;;;;5017368;28;19971;-79
2022/05/25 11:15:39;;;;;;;;;;;23.60;56.70;;;;;;5020798;28;19923;-81
2022/05/25 11:18:04;;;;;;;;;;;22.70;56.70;;;;;;5008087;28;19913;-80
2022/05/25 11:20:49;;;;;;;;;;;23.00;55.30;;;;;;5010052;28;20400;-80
2022/05/25 11:23:14;;;;;;;;;;;;;;;;;;5009113;28;19916;-81
2022/05/25 11:25:54;;;;;;;;;;;22.80;56.70;;;;;;5015915;28;19917;-81
2022/05/25 11:28:32;;;;;;;;;;;22.50;54.40;;;;;;5004277;28;19940;-80
2022/05/25 11:31:19;;;;;;;;;;;23.30;55.90;;;;;;5001660;28;19921;-80
2022/05/25 11:34:00;;;;;;;;;;;23.40;57.20;;;;;;5009133;28;19965;-81
2022/05/25 11:36:44;;;;;;;;;;;22.30;54.60;;;;;;5013201;28;19924;-80
2022/05/25 11:39:19;;;;;;;;;;;22.70;55.60;;;;;;5011416;28;19956;-80
2022/05/25 11:41:53;;;;;;;;;;;22.40;52.90;;;;;;5011142;28;20540;-80
2022/05/25 11:44:30;;;;;;;;;;;22.40;56.70;;;;;;5011659;28;19932;-81
2022/05/25 11:47:01;;;;;;;;;;;22.30;54.30;;;;;;5007778;28;19913;-81
2022/05/25 11:49:39;;;;;;;;;;;22.20;54.10;;;;;;5015242;28;19909;-80
2022/05/25 11:52:05;;;;;;;;;;;;;;;;;;5013842;28;19917;-80
2022/05/25 11:54:42;;;;;;;;;;;22.10;54.10;;;;;;5017089;28;19930;-80
2022/05/25 11:57:10;;;;;;;;;;;22.30;55.10;;;;;;5007207;28;19917;-80
2022/05/25 11:59:54;;;;;;;;;;;22.70;56.00;;;;;;5009516;28;19968;-81
2022/05/25 12:02:20;;;;;;;;;;;;;;;;;;5013431;28;20176;-80
2022/05/25 12:05:04;;;;;;;;;;;23.20;54.30;;;;;;5011991;28;20484;-80
2022/05/25 12:07:50;;;;;;;;;;;22.20;53.60;;;;;;5016875;28;19916;-80
2022/05/25 12:10:22;;;;;;;;;;;22.00;56.50;;;;;;5015991;28;19913;-79
2022/05/25 12:12:53;;;;;;;;;;;22.00;55.60;;;;;;5012601;28;20385;-80
2022/05/25 12:15:36;;;;;;;;;;;22.30;55.90;;;;;;5007701;28;19917;-80
2022/05/25 12:18:02;;;;;;;;;;;22.50;55.30;;;;;;5002758;28;19980;-80
2022/05/25 12:20:33;;;;;;;;;;;22.00;54.90;;;;;;5011755;28;19918;-79
2022/05/25 12:22:59;;;;;;;;;;;;;;;;;;5002294;28;20023;-79
2022/05/25 12:25:24;;;;;;;;;;;22.10;55.80;;;;;;5014207;28;20457;-79
2022/05/25 12:27:52;;;;;;;;;;;22.20;54.60;;;;;;5008929;28;19972;-77
2022/05/25 12:30:31;;;;;;;;;;;22.20;56.10;;;;;;5011498;28;19956;-79
2022/05/25 12:32:58;;;;;;;;;;;22.00;55.80;;;;;;5008114;28;19913;-79
2022/05/25 12:35:24;;;;;;;;;;;21.80;58.80;;;;;;5013263;28;19924;-80
2022/05/25 12:37:53;;;;;;;;;;;22.00;57.40;;;;;;5013782;28;19909;-78
2022/05/25 12:40:30;;;;;;;;;;;22.00;56.70;;;;;;5011738;28;20413;-81
2022/05/25 12:42:56;;;;;;;;;;;22.10;55.70;;;;;;5012136;28;19920;-78
2022/05/25 12:48:30;;;;;;;;;;;;;;;;;;5005414;28;19932;-81
2022/05/25 12:51:19;;;;;;;;;;;22.10;55.70;;;;;;5009467;28;20403;-80
2022/05/25 12:53:45;;;;;;;;;;;;;;;;;;5015687;28;20312;-81
2022/05/25 12:56:15;;;;;;;;;;;;;;;;;;5012929;28;19921;-80
2022/05/25 12:58:41;;;;;;;;;;;;;;;;;;5007118;28;20408;-80
2022/05/25 13:01:07;;;;;;;;;;;;;;;;;;5012526;28;19913;-81
2022/05/25 13:03:33;;;;;;;;;;;;;;;;;;5009472;28;19909;-80
2022/05/25 13:05:59;;;;;;;;;;;22.40;56.50;;;;;;5013875;28;19909;-79
2022/05/25 13:08:44;;;;;;;;;;;22.80;54.00;;;;;;5017653;28;19916;-80
2022/05/25 13:11:10;;;;;;;;;;;;;;;;;;5022933;28;19909;-81
2022/05/25 13:13:40;;;;;;;;;;;23.30;54.60;;;;;;5017394;28;19959;-80
2022/05/25 13:16:05;;;;;;;;;;;22.80;54.20;;;;;;5023956;28;19940;-80
2022/05/25 13:18:31;;;;;;;;;;;;;;;;;;5008530;28;19928;-80
2022/05/25 13:20:58;;;;;;;;;;;22.10;56.90;;;;;;5018543;28;20059;-80
2022/05/25 13:23:42;;;;;;;;;;;23.00;54.10;;;;;;5013954;28;20039;-80
2022/05/25 13:26:08;;;;;;;;;;;22.30;55.80;;;;;;5009988;28;19910;-80
2022/05/25 13:28:53;;;;;;;;;;;22.60;55.30;;;;;;5011822;28;19951;-82
2022/05/25 13:31:27;;;;;;;;;;;22.60;54.70;;;;;;5006894;28;20342;-80
2022/05/25 13:33:52;;;;;;;;;;;23.40;54.60;;;;;;5010091;28;19928;-79
2022/05/25 13:36:18;;;;;;;;;;;;;;;;;;5013907;28;19921;-81
2022/05/25 13:38:45;;;;;;;;;;;;;;;;;;5014078;28;19913;-80
2022/05/25 13:41:10;;;;;;;;;;;22.40;52.00;;;;;;5015682;28;19967;-81
2022/05/25 13:43:36;;;;;;;;;;;;;;;;;;5010614;28;20408;-81
2022/05/25 13:46:01;;;;;;;;;;;22.50;55.60;;;;;;5021049;28;20293;-81
2022/05/25 13:48:27;;;;;;;;;;;;;;;;;;5012525;28;19940;-81
2022/05/25 13:50:54;;;;;;;;;;;22.30;54.40;;;;;;5013298;28;19905;-80
2022/05/25 13:53:20;;;;;;;;;;;;;;;;;;5011175;28;19983;-80
2022/05/25 13:55:46;;;;;;;;;;;;;;;;;;5016386;28;19917;-80
2022/05/25 13:58:16;;;;;;;;;;;22.30;55.70;;;;;;5008688;28;19940;-85
2022/05/25 14:00:51;;;;;;;;;;;;;;;;;;5019661;28;19910;-80
2022/05/25 14:03:16;;;;;;;;;;;22.40;52.60;;;;;;5007635;28;19920;-82
2022/05/25 14:05:45;;;;;;;;;;;22.40;52.20;;;;;;5012588;28;19909;-80
2022/05/25 14:08:11;;;;;;;;;;;;;;;;;;5004461;28;19917;-80
2022/05/25 14:10:55;;;;;;;;;;;;;;;;;;5008219;28;20331;-80
2022/05/25 14:13:21;;;;;;;;;;;;;;;;;;5008583;28;19920;-80
2022/05/25 14:15:47;;;;;;;;;;;;;;;;;;5013416;28;19913;-81
2022/05/25 14:18:12;;;;;;;;;;;;;;;;;;5009722;28;20032;-80
2022/05/25 14:20:38;;;;;;;;;;;;;;;;;;5013553;28;20381;-78
2022/05/25 14:23:07;;;;;;;;;;;21.90;53.00;;;;;;5013058;28;19952;-78
2022/05/25 14:25:33;;;;;;;;;;;22.10;52.90;;;;;;5009495;28;19996;-79
2022/05/25 14:27:58;;;;;;;;;;;;;;;;;;5010892;28;19944;-79
2022/05/25 14:30:33;;;;;;;;;;;23.10;54.10;;;;;;5007750;28;19906;-79
2022/05/25 14:33:00;;;;;;;;;;;;;;;;;;5010978;28;19949;-84
2022/05/25 14:35:26;;;;;;;;;;;22.20;54.00;;;;;;5011507;28;20004;-81
2022/05/25 14:37:52;;;;;;;;;;;22.00;55.50;;;;;;5011407;28;20579;-80
2022/05/25 14:40:19;;;;;;;;;;;21.80;54.20;;;;;;5008530;28;19916;-82
2022/05/25 14:42:55;;;;;;;;;;;22.40;54.60;;;;;;5010707;28;19920;-81
2022/05/25 14:45:21;;;;;;;;;;;21.80;55.00;;;;;;5008438;28;19952;-81
2022/05/25 14:47:57;;;;;;;;;;;21.80;53.60;;;;;;5009186;28;19940;-80
2022/05/25 14:50:23;;;;;;;;;;;;;;;;;;5007190;28;19920;-80
2022/05/25 14:52:49;;;;;;;;;;;;;;;;;;5002926;28;20328;-81
2022/05/25 14:55:22;;;;;;;;;;;21.90;54.10;;;;;;5003793;28;20056;-82
2022/05/25 14:58:03;;;;;;;;;;;22.30;52.80;;;;;;5000235;28;20137;-81
2022/05/25 15:00:29;;;;;;;;;;;22.40;54.80;;;;;;4999408;28;19948;-81
2022/05/25 15:02:58;;;;;;;;;;;22.10;53.80;;;;;;4996367;28;19967;-80
2022/05/25 15:05:38;;;;;;;;;;;21.90;53.50;;;;;;5012258;28;19917;-80
2022/05/25 15:08:05;;;;;;;;;;;22.10;55.50;;;;;;5010267;28;19910;-80